sensor_id;sensor_type;location;lat;lon;timestamp;temperature;humidity
26254;DHT22;53339;51.378;0.094;2022-07-29T00:00:15;15.40;65.10
26254;DHT22;53339;51.378;0.094;2022-07-29T00:02:43;15.30;65.20
26254;DHT22;53339;51.378;0.094;2022-07-29T00:05:11;15.30;65.30
26254;DHT22;53339;51.378;0.094;2022-07-29T00:07:40;15.30;65.40
26254;DHT22;53339;51.378;0.094;2022-07-29T00:10:08;15.20;65.60
26254;DHT22;53339;51.378;0.094;2022-07-29T00:12:36;15.20;65.70
26254;DHT22;53339;51.378;0.094;2022-07-29T00:15:04;15.20;65.80
26254;DHT22;53339;51.378;0.094;2022-07-29T00:17:32;15.20;65.90
26254;DHT22;53339;51.378;0.094;2022-07-29T00:20:01;15.10;66.00
26254;DHT22;53339;51.378;0.094;2022-07-29T00:22:28;15.10;66.20
26254;DHT22;53339;51.378;0.094;2022-07-29T00:24:56;15.10;66.30
26254;DHT22;53339;51.378;0.094;2022-07-29T00:27:23;15.10;66.40
26254;DHT22;53339;51.378;0.094;2022-07-29T00:29:51;15.00;66.50
26254;DHT22;53339;51.378;0.094;2022-07-29T00:32:18;15.00;66.60
26254;DHT22;53339;51.378;0.094;2022-07-29T00:34:46;15.00;66.70
26254;DHT22;53339;51.378;0.094;2022-07-29T00:37:32;15.00;66.90
26254;DHT22;53339;51.378;0.094;2022-07-29T00:39:59;15.00;67.00
26254;DHT22;53339;51.378;0.094;2022-07-29T00:42:27;15.00;67.20
26254;DHT22;53339;51.378;0.094;2022-07-29T00:44:55;15.00;67.30
26254;DHT22;53339;51.378;0.094;2022-07-29T00:47:22;15.00;67.30
26254;DHT22;53339;51.378;0.094;2022-07-29T00:49:50;15.10;67.40
26254;DHT22;53339;51.378;0.094;2022-07-29T00:52:17;15.10;67.50
26254;DHT22;53339;51.378;0.094;2022-07-29T00:54:45;15.10;67.50
26254;DHT22;53339;51.378;0.094;2022-07-29T00:57:13;15.10;67.60
26254;DHT22;53339;51.378;0.094;2022-07-29T00:59:40;15.10;67.70
26254;DHT22;53339;51.378;0.094;2022-07-29T01:02:08;15.20;67.70
26254;DHT22;53339;51.378;0.094;2022-07-29T01:04:36;15.20;67.80
26254;DHT22;53339;51.378;0.094;2022-07-29T01:07:04;15.20;67.80
26254;DHT22;53339;51.378;0.094;2022-07-29T01:09:32;15.20;67.90
26254;DHT22;53339;51.378;0.094;2022-07-29T01:12:10;15.20;68.00
26254;DHT22;53339;51.378;0.094;2022-07-29T01:14:38;15.20;68.10
26254;DHT22;53339;51.378;0.094;2022-07-29T01:23:11;15.40;67.90
26254;DHT22;53339;51.378;0.094;2022-07-29T01:25:45;15.40;67.80
26254;DHT22;53339;51.378;0.094;2022-07-29T01:31:00;15.50;67.60
26254;DHT22;53339;51.378;0.094;2022-07-29T01:33:33;15.50;67.50
26254;DHT22;53339;51.378;0.094;2022-07-29T01:36:27;15.50;67.40
26254;DHT22;53339;51.378;0.094;2022-07-29T01:39:12;15.50;67.40
26254;DHT22;53339;51.378;0.094;2022-07-29T01:44:37;15.40;67.90
26254;DHT22;53339;51.378;0.094;2022-07-29T01:47:17;15.30;68.10
26254;DHT22;53339;51.378;0.094;2022-07-29T01:49:51;15.20;68.20
26254;DHT22;53339;51.378;0.094;2022-07-29T01:52:27;15.10;68.20
26254;DHT22;53339;51.378;0.094;2022-07-29T01:55:01;15.10;68.30
26254;DHT22;53339;51.378;0.094;2022-07-29T01:57:31;15.10;68.60
26254;DHT22;53339;51.378;0.094;2022-07-29T02:00:02;15.00;68.80
26254;DHT22;53339;51.378;0.094;2022-07-29T02:02:40;15.00;68.80
26254;DHT22;53339;51.378;0.094;2022-07-29T02:05:11;15.00;68.80
26254;DHT22;53339;51.378;0.094;2022-07-29T02:07:40;15.00;68.80
26254;DHT22;53339;51.378;0.094;2022-07-29T02:10:11;15.10;68.70
26254;DHT22;53339;51.378;0.094;2022-07-29T02:12:40;15.20;68.60
26254;DHT22;53339;51.378;0.094;2022-07-29T02:15:10;15.20;68.50
26254;DHT22;53339;51.378;0.094;2022-07-29T02:17:45;15.30;68.40
26254;DHT22;53339;51.378;0.094;2022-07-29T02:20:16;15.30;68.30
26254;DHT22;53339;51.378;0.094;2022-07-29T02:22:44;15.20;68.30
26254;DHT22;53339;51.378;0.094;2022-07-29T02:25:12;15.20;68.20
26254;DHT22;53339;51.378;0.094;2022-07-29T02:27:42;15.20;68.30
26254;DHT22;53339;51.378;0.094;2022-07-29T02:30:11;15.20;68.30
26254;DHT22;53339;51.378;0.094;2022-07-29T02:32:41;15.10;68.30
26254;DHT22;53339;51.378;0.094;2022-07-29T02:35:09;15.10;68.30
26254;DHT22;53339;51.378;0.094;2022-07-29T02:37:38;15.00;68.50
26254;DHT22;53339;51.378;0.094;2022-07-29T02:40:10;14.90;68.90
26254;DHT22;53339;51.378;0.094;2022-07-29T02:42:41;14.70;69.20
26254;DHT22;53339;51.378;0.094;2022-07-29T02:45:10;14.60;69.60
26254;DHT22;53339;51.378;0.094;2022-07-29T02:47:43;14.50;69.70
26254;DHT22;53339;51.378;0.094;2022-07-29T02:50:16;14.50;69.90
26254;DHT22;53339;51.378;0.094;2022-07-29T02:53:02;14.40;69.80
26254;DHT22;53339;51.378;0.094;2022-07-29T02:56:01;14.40;69.90
26254;DHT22;53339;51.378;0.094;2022-07-29T02:58:34;14.30;69.90
26254;DHT22;53339;51.378;0.094;2022-07-29T03:01:14;14.30;69.90
26254;DHT22;53339;51.378;0.094;2022-07-29T03:03:49;14.20;70.00
26254;DHT22;53339;51.378;0.094;2022-07-29T03:06:20;14.10;70.10
26254;DHT22;53339;51.378;0.094;2022-07-29T03:08:55;14.10;70.20
26254;DHT22;53339;51.378;0.094;2022-07-29T03:11:24;14.00;70.40
26254;DHT22;53339;51.378;0.094;2022-07-29T03:14:09;13.90;70.60
26254;DHT22;53339;51.378;0.094;2022-07-29T03:16:37;13.90;70.70
26254;DHT22;53339;51.378;0.094;2022-07-29T03:19:07;13.80;70.80
26254;DHT22;53339;51.378;0.094;2022-07-29T03:21:35;13.80;70.90
26254;DHT22;53339;51.378;0.094;2022-07-29T03:24:03;13.80;70.90
26254;DHT22;53339;51.378;0.094;2022-07-29T03:26:36;13.80;70.80
26254;DHT22;53339;51.378;0.094;2022-07-29T03:29:03;13.80;70.80
26254;DHT22;53339;51.378;0.094;2022-07-29T03:31:31;13.80;70.80
26254;DHT22;53339;51.378;0.094;2022-07-29T03:33:59;13.80;70.90
26254;DHT22;53339;51.378;0.094;2022-07-29T03:36:27;13.80;70.90
26254;DHT22;53339;51.378;0.094;2022-07-29T03:38:54;13.70;71.00
26254;DHT22;53339;51.378;0.094;2022-07-29T03:41:23;13.70;71.10
26254;DHT22;53339;51.378;0.094;2022-07-29T03:43:51;13.70;71.50
26254;DHT22;53339;51.378;0.094;2022-07-29T03:46:22;13.60;71.60
26254;DHT22;53339;51.378;0.094;2022-07-29T03:48:56;13.50;71.90
26254;DHT22;53339;51.378;0.094;2022-07-29T03:51:26;13.50;72.00
26254;DHT22;53339;51.378;0.094;2022-07-29T03:53:58;13.40;72.10
26254;DHT22;53339;51.378;0.094;2022-07-29T03:56:27;13.40;72.20
26254;DHT22;53339;51.378;0.094;2022-07-29T03:58:56;13.30;72.30
26254;DHT22;53339;51.378;0.094;2022-07-29T04:01:23;13.30;72.40
26254;DHT22;53339;51.378;0.094;2022-07-29T04:03:52;13.20;72.40
26254;DHT22;53339;51.378;0.094;2022-07-29T04:06:19;13.20;72.50
26254;DHT22;53339;51.378;0.094;2022-07-29T04:08:47;13.20;72.50
26254;DHT22;53339;51.378;0.094;2022-07-29T04:11:14;13.20;72.60
26254;DHT22;53339;51.378;0.094;2022-07-29T04:13:42;13.20;72.80
26254;DHT22;53339;51.378;0.094;2022-07-29T04:16:10;13.20;73.00
26254;DHT22;53339;51.378;0.094;2022-07-29T04:18:37;13.20;73.00
26254;DHT22;53339;51.378;0.094;2022-07-29T04:21:05;13.20;72.90
26254;DHT22;53339;51.378;0.094;2022-07-29T04:23:32;13.20;72.80
26254;DHT22;53339;51.378;0.094;2022-07-29T04:26:00;13.20;72.80
26254;DHT22;53339;51.378;0.094;2022-07-29T04:28:28;13.20;72.80
26254;DHT22;53339;51.378;0.094;2022-07-29T04:30:56;13.30;72.80
26254;DHT22;53339;51.378;0.094;2022-07-29T04:33:23;13.20;72.80
26254;DHT22;53339;51.378;0.094;2022-07-29T04:35:51;13.20;72.90
26254;DHT22;53339;51.378;0.094;2022-07-29T04:38:21;13.20;73.00
26254;DHT22;53339;51.378;0.094;2022-07-29T04:40:49;13.20;73.00
26254;DHT22;53339;51.378;0.094;2022-07-29T04:43:17;13.30;73.00
26254;DHT22;53339;51.378;0.094;2022-07-29T04:45:46;13.30;72.90
26254;DHT22;53339;51.378;0.094;2022-07-29T04:48:13;13.20;73.10
26254;DHT22;53339;51.378;0.094;2022-07-29T04:50:41;13.20;73.30
26254;DHT22;53339;51.378;0.094;2022-07-29T04:53:09;13.20;73.30
26254;DHT22;53339;51.378;0.094;2022-07-29T04:55:37;13.30;73.30
26254;DHT22;53339;51.378;0.094;2022-07-29T04:58:05;13.30;73.30
26254;DHT22;53339;51.378;0.094;2022-07-29T05:00:32;13.30;73.30
26254;DHT22;53339;51.378;0.094;2022-07-29T05:03:00;13.40;73.20
26254;DHT22;53339;51.378;0.094;2022-07-29T05:05:28;13.40;73.20
26254;DHT22;53339;51.378;0.094;2022-07-29T05:07:55;13.50;73.10
26254;DHT22;53339;51.378;0.094;2022-07-29T05:10:23;13.50;73.10
26254;DHT22;53339;51.378;0.094;2022-07-29T05:12:51;13.50;73.20
26254;DHT22;53339;51.378;0.094;2022-07-29T05:15:18;13.50;73.30
26254;DHT22;53339;51.378;0.094;2022-07-29T05:17:47;13.60;73.40
26254;DHT22;53339;51.378;0.094;2022-07-29T05:20:14;13.60;73.50
26254;DHT22;53339;51.378;0.094;2022-07-29T05:22:42;13.60;73.50
26254;DHT22;53339;51.378;0.094;2022-07-29T05:25:09;13.60;73.80
26254;DHT22;53339;51.378;0.094;2022-07-29T05:27:37;13.60;73.90
26254;DHT22;53339;51.378;0.094;2022-07-29T05:30:05;13.70;74.10
26254;DHT22;53339;51.378;0.094;2022-07-29T05:32:32;13.70;74.20
26254;DHT22;53339;51.378;0.094;2022-07-29T05:35:00;13.70;74.30
26254;DHT22;53339;51.378;0.094;2022-07-29T05:37:28;13.90;74.20
26254;DHT22;53339;51.378;0.094;2022-07-29T05:39:55;14.00;74.20
26254;DHT22;53339;51.378;0.094;2022-07-29T05:42:24;14.10;74.20
26254;DHT22;53339;51.378;0.094;2022-07-29T05:44:52;14.20;74.20
26254;DHT22;53339;51.378;0.094;2022-07-29T05:47:20;14.40;74.20
26254;DHT22;53339;51.378;0.094;2022-07-29T05:49:48;14.60;74.30
26254;DHT22;53339;51.378;0.094;2022-07-29T05:52:16;14.70;74.40
26254;DHT22;53339;51.378;0.094;2022-07-29T05:54:44;14.80;74.20
26254;DHT22;53339;51.378;0.094;2022-07-29T05:57:19;14.90;74.10
26254;DHT22;53339;51.378;0.094;2022-07-29T05:59:48;15.10;73.90
26254;DHT22;53339;51.378;0.094;2022-07-29T06:02:16;15.30;73.70
26254;DHT22;53339;51.378;0.094;2022-07-29T06:04:44;15.50;73.40
26254;DHT22;53339;51.378;0.094;2022-07-29T06:07:12;15.80;73.20
26254;DHT22;53339;51.378;0.094;2022-07-29T06:09:39;16.00;72.90
26254;DHT22;53339;51.378;0.094;2022-07-29T06:12:07;16.20;72.60
26254;DHT22;53339;51.378;0.094;2022-07-29T06:14:35;16.50;72.40
26254;DHT22;53339;51.378;0.094;2022-07-29T06:17:03;16.70;72.10
26254;DHT22;53339;51.378;0.094;2022-07-29T06:19:30;16.90;71.80
26254;DHT22;53339;51.378;0.094;2022-07-29T06:21:58;17.00;71.70
26254;DHT22;53339;51.378;0.094;2022-07-29T06:24:25;17.20;71.40
26254;DHT22;53339;51.378;0.094;2022-07-29T06:26:53;17.30;71.20
26254;DHT22;53339;51.378;0.094;2022-07-29T06:29:21;17.40;70.90
26254;DHT22;53339;51.378;0.094;2022-07-29T06:31:48;17.50;70.90
26254;DHT22;53339;51.378;0.094;2022-07-29T06:34:16;17.60;70.90
26254;DHT22;53339;51.378;0.094;2022-07-29T06:36:44;17.60;70.80
26254;DHT22;53339;51.378;0.094;2022-07-29T06:39:11;17.70;70.70
26254;DHT22;53339;51.378;0.094;2022-07-29T06:41:39;17.70;70.80
26254;DHT22;53339;51.378;0.094;2022-07-29T06:44:09;17.90;70.80
26254;DHT22;53339;51.378;0.094;2022-07-29T06:46:37;18.10;70.70
26254;DHT22;53339;51.378;0.094;2022-07-29T06:49:04;18.20;70.50
26254;DHT22;53339;51.378;0.094;2022-07-29T06:51:33;18.40;70.30
26254;DHT22;53339;51.378;0.094;2022-07-29T06:54:00;18.60;70.10
26254;DHT22;53339;51.378;0.094;2022-07-29T06:56:31;18.70;69.90
26254;DHT22;53339;51.378;0.094;2022-07-29T06:59:09;18.80;69.70
26254;DHT22;53339;51.378;0.094;2022-07-29T07:01:41;18.90;69.30
26254;DHT22;53339;51.378;0.094;2022-07-29T07:04:10;19.00;69.30
26254;DHT22;53339;51.378;0.094;2022-07-29T07:06:38;19.00;69.30
26254;DHT22;53339;51.378;0.094;2022-07-29T07:09:06;19.10;69.00
26254;DHT22;53339;51.378;0.094;2022-07-29T07:11:34;19.20;69.00
26254;DHT22;53339;51.378;0.094;2022-07-29T07:14:02;19.30;69.00
26254;DHT22;53339;51.378;0.094;2022-07-29T07:16:31;19.40;68.90
26254;DHT22;53339;51.378;0.094;2022-07-29T07:18:59;19.50;68.70
26254;DHT22;53339;51.378;0.094;2022-07-29T07:21:27;19.60;68.30
26254;DHT22;53339;51.378;0.094;2022-07-29T07:23:55;19.70;68.30
26254;DHT22;53339;51.378;0.094;2022-07-29T07:26:22;19.90;68.00
26254;DHT22;53339;51.378;0.094;2022-07-29T07:28:50;19.90;67.70
26254;DHT22;53339;51.378;0.094;2022-07-29T07:31:17;19.90;67.50
26254;DHT22;53339;51.378;0.094;2022-07-29T07:33:45;19.90;67.60
26254;DHT22;53339;51.378;0.094;2022-07-29T07:36:13;19.80;67.80
26254;DHT22;53339;51.378;0.094;2022-07-29T07:38:40;19.70;67.80
26254;DHT22;53339;51.378;0.094;2022-07-29T07:41:08;19.70;67.90
26254;DHT22;53339;51.378;0.094;2022-07-29T07:43:39;19.60;67.90
26254;DHT22;53339;51.378;0.094;2022-07-29T07:46:13;19.60;68.00
26254;DHT22;53339;51.378;0.094;2022-07-29T07:48:41;19.50;68.10
26254;DHT22;53339;51.378;0.094;2022-07-29T07:51:09;19.40;68.30
26254;DHT22;53339;51.378;0.094;2022-07-29T07:53:37;19.50;68.50
26254;DHT22;53339;51.378;0.094;2022-07-29T07:56:04;19.60;68.50
26254;DHT22;53339;51.378;0.094;2022-07-29T07:58:37;19.70;68.30
26254;DHT22;53339;51.378;0.094;2022-07-29T08:01:05;19.80;68.00
26254;DHT22;53339;51.378;0.094;2022-07-29T08:03:33;19.90;67.70
26254;DHT22;53339;51.378;0.094;2022-07-29T08:06:02;19.90;67.60
26254;DHT22;53339;51.378;0.094;2022-07-29T08:08:30;20.00;67.50
26254;DHT22;53339;51.378;0.094;2022-07-29T08:10:58;20.10;67.40
26254;DHT22;53339;51.378;0.094;2022-07-29T08:13:29;20.20;67.20
26254;DHT22;53339;51.378;0.094;2022-07-29T08:15:58;20.20;66.70
26254;DHT22;53339;51.378;0.094;2022-07-29T08:18:29;20.20;66.10
26254;DHT22;53339;51.378;0.094;2022-07-29T08:20:57;20.40;65.90
26254;DHT22;53339;51.378;0.094;2022-07-29T08:23:25;20.50;65.00
26254;DHT22;53339;51.378;0.094;2022-07-29T08:25:59;20.60;64.50
26254;DHT22;53339;51.378;0.094;2022-07-29T08:28:26;20.60;64.20
26254;DHT22;53339;51.378;0.094;2022-07-29T08:30:54;20.70;63.60
26254;DHT22;53339;51.378;0.094;2022-07-29T08:33:21;20.80;63.40
26254;DHT22;53339;51.378;0.094;2022-07-29T08:35:49;20.90;63.00
26254;DHT22;53339;51.378;0.094;2022-07-29T08:38:17;21.10;62.60
26254;DHT22;53339;51.378;0.094;2022-07-29T08:40:46;21.20;62.50
26254;DHT22;53339;51.378;0.094;2022-07-29T08:43:13;21.20;62.40
26254;DHT22;53339;51.378;0.094;2022-07-29T08:45:49;21.30;62.10
26254;DHT22;53339;51.378;0.094;2022-07-29T08:48:20;21.40;62.00
26254;DHT22;53339;51.378;0.094;2022-07-29T08:50:52;21.50;61.70
26254;DHT22;53339;51.378;0.094;2022-07-29T08:53:24;21.60;61.70
26254;DHT22;53339;51.378;0.094;2022-07-29T08:55:54;21.70;61.30
26254;DHT22;53339;51.378;0.094;2022-07-29T08:58:23;21.80;60.50
26254;DHT22;53339;51.378;0.094;2022-07-29T09:00:55;21.80;60.70
26254;DHT22;53339;51.378;0.094;2022-07-29T09:03:25;21.80;60.20
26254;DHT22;53339;51.378;0.094;2022-07-29T09:05:58;21.90;59.60
26254;DHT22;53339;51.378;0.094;2022-07-29T09:08:26;21.90;58.70
26254;DHT22;53339;51.378;0.094;2022-07-29T09:10:54;21.90;58.80
26254;DHT22;53339;51.378;0.094;2022-07-29T09:13:25;21.90;58.20
26254;DHT22;53339;51.378;0.094;2022-07-29T09:15:53;22.00;57.90
26254;DHT22;53339;51.378;0.094;2022-07-29T09:18:35;22.10;57.70
26254;DHT22;53339;51.378;0.094;2022-07-29T09:21:04;22.20;57.10
26254;DHT22;53339;51.378;0.094;2022-07-29T09:26:37;22.30;56.20
26254;DHT22;53339;51.378;0.094;2022-07-29T09:29:14;22.30;55.90
26254;DHT22;53339;51.378;0.094;2022-07-29T09:31:44;22.30;56.20
26254;DHT22;53339;51.378;0.094;2022-07-29T09:34:15;22.30;55.90
26254;DHT22;53339;51.378;0.094;2022-07-29T09:36:48;22.30;55.80
26254;DHT22;53339;51.378;0.094;2022-07-29T09:39:30;22.30;55.90
26254;DHT22;53339;51.378;0.094;2022-07-29T09:42:01;22.40;55.80
26254;DHT22;53339;51.378;0.094;2022-07-29T09:44:48;22.40;56.10
26254;DHT22;53339;51.378;0.094;2022-07-29T09:47:18;22.60;55.60
26254;DHT22;53339;51.378;0.094;2022-07-29T09:49:57;22.60;55.70
26254;DHT22;53339;51.378;0.094;2022-07-29T09:52:28;22.70;55.10
26254;DHT22;53339;51.378;0.094;2022-07-29T09:55:07;22.70;54.70
26254;DHT22;53339;51.378;0.094;2022-07-29T09:57:35;22.70;53.90
26254;DHT22;53339;51.378;0.094;2022-07-29T10:00:16;22.70;54.20
26254;DHT22;53339;51.378;0.094;2022-07-29T10:02:46;22.70;54.10
26254;DHT22;53339;51.378;0.094;2022-07-29T10:12:53;23.10;53.50
26254;DHT22;53339;51.378;0.094;2022-07-29T10:15:22;23.30;52.90
26254;DHT22;53339;51.378;0.094;2022-07-29T10:17:51;23.40;52.40
26254;DHT22;53339;51.378;0.094;2022-07-29T10:20:20;23.50;52.30
26254;DHT22;53339;51.378;0.094;2022-07-29T10:22:48;23.60;52.10
26254;DHT22;53339;51.378;0.094;2022-07-29T10:25:22;23.60;51.00
26254;DHT22;53339;51.378;0.094;2022-07-29T10:27:51;23.70;51.40
26254;DHT22;53339;51.378;0.094;2022-07-29T10:30:20;23.70;51.50
26254;DHT22;53339;51.378;0.094;2022-07-29T10:35:27;23.70;50.70
26254;DHT22;53339;51.378;0.094;2022-07-29T10:43:33;23.90;49.30
26254;DHT22;53339;51.378;0.094;2022-07-29T10:46:03;24.00;48.80
26254;DHT22;53339;51.378;0.094;2022-07-29T10:48:31;24.00;49.10
26254;DHT22;53339;51.378;0.094;2022-07-29T10:51:04;24.10;49.20
26254;DHT22;53339;51.378;0.094;2022-07-29T10:53:50;24.20;49.00
26254;DHT22;53339;51.378;0.094;2022-07-29T11:01:48;24.70;48.00
26254;DHT22;53339;51.378;0.094;2022-07-29T11:07:13;24.90;47.60
26254;DHT22;53339;51.378;0.094;2022-07-29T11:09:43;24.90;47.30
26254;DHT22;53339;51.378;0.094;2022-07-29T11:15:25;25.10;46.20
26254;DHT22;53339;51.378;0.094;2022-07-29T11:20:47;25.00;45.00
26254;DHT22;53339;51.378;0.094;2022-07-29T11:23:22;24.90;45.00
26254;DHT22;53339;51.378;0.094;2022-07-29T11:28:43;25.10;44.50
26254;DHT22;53339;51.378;0.094;2022-07-29T11:47:26;25.70;40.00
26254;DHT22;53339;51.378;0.094;2022-07-29T11:49:56;25.70;40.30
26254;DHT22;53339;51.378;0.094;2022-07-29T11:55:05;26.00;41.10
26254;DHT22;53339;51.378;0.094;2022-07-29T11:57:36;26.20;40.30
26254;DHT22;53339;51.378;0.094;2022-07-29T12:00:06;26.30;40.30
26254;DHT22;53339;51.378;0.094;2022-07-29T12:02:42;26.50;40.20
26254;DHT22;53339;51.378;0.094;2022-07-29T12:05:15;26.70;40.00
26254;DHT22;53339;51.378;0.094;2022-07-29T12:07:48;26.80;39.70
26254;DHT22;53339;51.378;0.094;2022-07-29T12:10:16;27.00;39.70
26254;DHT22;53339;51.378;0.094;2022-07-29T12:12:51;27.20;39.30
26254;DHT22;53339;51.378;0.094;2022-07-29T12:15:20;27.60;38.90
26254;DHT22;53339;51.378;0.094;2022-07-29T12:17:48;27.80;37.70
26254;DHT22;53339;51.378;0.094;2022-07-29T12:20:42;28.00;37.70
26254;DHT22;53339;51.378;0.094;2022-07-29T12:23:10;28.00;36.20
26254;DHT22;53339;51.378;0.094;2022-07-29T12:25:42;28.10;37.00
26254;DHT22;53339;51.378;0.094;2022-07-29T12:28:11;28.20;36.80
26254;DHT22;53339;51.378;0.094;2022-07-29T12:30:42;28.30;36.90
26254;DHT22;53339;51.378;0.094;2022-07-29T12:33:31;28.60;37.00
26254;DHT22;53339;51.378;0.094;2022-07-29T12:36:00;28.90;36.50
26254;DHT22;53339;51.378;0.094;2022-07-29T12:38:34;29.30;35.90
26254;DHT22;53339;51.378;0.094;2022-07-29T12:41:02;29.70;35.50
26254;DHT22;53339;51.378;0.094;2022-07-29T12:43:32;30.00;35.40
26254;DHT22;53339;51.378;0.094;2022-07-29T12:46:12;30.50;35.30
26254;DHT22;53339;51.378;0.094;2022-07-29T12:48:42;31.10;34.70
26254;DHT22;53339;51.378;0.094;2022-07-29T12:51:11;31.80;32.90
26254;DHT22;53339;51.378;0.094;2022-07-29T12:53:41;32.50;33.70
26254;DHT22;53339;51.378;0.094;2022-07-29T12:56:15;33.00;33.00
26254;DHT22;53339;51.378;0.094;2022-07-29T12:59:16;33.40;30.50
26254;DHT22;53339;51.378;0.094;2022-07-29T13:01:45;33.90;31.40
26254;DHT22;53339;51.378;0.094;2022-07-29T13:04:33;34.30;31.20
26254;DHT22;53339;51.378;0.094;2022-07-29T13:07:05;34.80;30.40
26254;DHT22;53339;51.378;0.094;2022-07-29T13:09:43;35.10;29.60
26254;DHT22;53339;51.378;0.094;2022-07-29T13:12:12;34.70;29.00
26254;DHT22;53339;51.378;0.094;2022-07-29T13:14:42;33.90;29.30
26254;DHT22;53339;51.378;0.094;2022-07-29T13:19:45;32.00;30.00
26254;DHT22;53339;51.378;0.094;2022-07-29T13:22:21;31.40;30.50
26254;DHT22;53339;51.378;0.094;2022-07-29T13:27:27;30.60;30.90
26254;DHT22;53339;51.378;0.094;2022-07-29T13:29:57;30.20;31.20
26254;DHT22;53339;51.378;0.094;2022-07-29T13:32:27;29.90;31.40
26254;DHT22;53339;51.378;0.094;2022-07-29T13:34:56;30.30;30.50
26254;DHT22;53339;51.378;0.094;2022-07-29T13:37:24;30.90;29.70
26254;DHT22;53339;51.378;0.094;2022-07-29T13:39:53;31.70;29.50
26254;DHT22;53339;51.378;0.094;2022-07-29T13:42:22;32.60;29.20
26254;DHT22;53339;51.378;0.094;2022-07-29T13:44:50;33.60;28.30
26254;DHT22;53339;51.378;0.094;2022-07-29T13:47:19;34.20;27.10
26254;DHT22;53339;51.378;0.094;2022-07-29T13:49:47;34.60;26.10
26254;DHT22;53339;51.378;0.094;2022-07-29T13:52:15;34.40;24.20
26254;DHT22;53339;51.378;0.094;2022-07-29T13:54:43;34.40;25.50
26254;DHT22;53339;51.378;0.094;2022-07-29T13:57:12;34.80;25.30
26254;DHT22;53339;51.378;0.094;2022-07-29T13:59:41;35.20;25.00
26254;DHT22;53339;51.378;0.094;2022-07-29T14:02:10;35.70;24.00
26254;DHT22;53339;51.378;0.094;2022-07-29T14:04:38;36.00;24.40
26254;DHT22;53339;51.378;0.094;2022-07-29T14:07:06;36.40;22.90
26254;DHT22;53339;51.378;0.094;2022-07-29T14:09:34;36.60;23.40
26254;DHT22;53339;51.378;0.094;2022-07-29T14:12:03;37.10;23.50
26254;DHT22;53339;51.378;0.094;2022-07-29T14:14:31;37.40;23.40
26254;DHT22;53339;51.378;0.094;2022-07-29T14:16:59;37.40;22.90
26254;DHT22;53339;51.378;0.094;2022-07-29T14:19:27;37.70;22.70
26254;DHT22;53339;51.378;0.094;2022-07-29T14:21:54;37.90;22.70
26254;DHT22;53339;51.378;0.094;2022-07-29T14:24:22;38.30;21.60
26254;DHT22;53339;51.378;0.094;2022-07-29T14:26:50;38.20;20.60
26254;DHT22;53339;51.378;0.094;2022-07-29T14:29:17;37.90;21.10
26254;DHT22;53339;51.378;0.094;2022-07-29T14:31:45;37.90;20.60
26254;DHT22;53339;51.378;0.094;2022-07-29T14:34:12;37.60;20.90
26254;DHT22;53339;51.378;0.094;2022-07-29T14:36:42;36.60;21.10
26254;DHT22;53339;51.378;0.094;2022-07-29T14:39:10;35.70;22.00
26254;DHT22;53339;51.378;0.094;2022-07-29T14:41:38;35.60;21.90
26254;DHT22;53339;51.378;0.094;2022-07-29T14:44:05;35.40;21.90
26254;DHT22;53339;51.378;0.094;2022-07-29T14:46:33;35.60;22.10
26254;DHT22;53339;51.378;0.094;2022-07-29T14:49:01;35.80;21.80
26254;DHT22;53339;51.378;0.094;2022-07-29T14:51:28;36.10;21.70
26254;DHT22;53339;51.378;0.094;2022-07-29T14:53:58;36.60;21.50
26254;DHT22;53339;51.378;0.094;2022-07-29T14:56:26;36.90;21.10
26254;DHT22;53339;51.378;0.094;2022-07-29T14:59:04;37.20;21.00
26254;DHT22;53339;51.378;0.094;2022-07-29T15:01:33;37.70;20.90
26254;DHT22;53339;51.378;0.094;2022-07-29T15:04:00;37.90;20.70
26254;DHT22;53339;51.378;0.094;2022-07-29T15:06:28;37.70;20.70
26254;DHT22;53339;51.378;0.094;2022-07-29T15:08:55;37.50;20.70
26254;DHT22;53339;51.378;0.094;2022-07-29T15:11:23;37.70;20.30
26254;DHT22;53339;51.378;0.094;2022-07-29T15:13:50;37.90;19.80
26254;DHT22;53339;51.378;0.094;2022-07-29T15:16:18;38.10;20.10
26254;DHT22;53339;51.378;0.094;2022-07-29T15:18:46;37.90;20.20
26254;DHT22;53339;51.378;0.094;2022-07-29T15:21:13;37.80;20.40
26254;DHT22;53339;51.378;0.094;2022-07-29T15:23:43;37.30;20.30
26254;DHT22;53339;51.378;0.094;2022-07-29T15:26:11;36.70;20.70
26254;DHT22;53339;51.378;0.094;2022-07-29T15:28:38;36.90;20.90
26254;DHT22;53339;51.378;0.094;2022-07-29T15:31:07;37.30;20.50
26254;DHT22;53339;51.378;0.094;2022-07-29T15:33:36;37.00;20.60
26254;DHT22;53339;51.378;0.094;2022-07-29T15:36:04;35.90;21.10
26254;DHT22;53339;51.378;0.094;2022-07-29T15:38:32;34.60;22.00
26254;DHT22;53339;51.378;0.094;2022-07-29T15:41:00;33.40;22.90
26254;DHT22;53339;51.378;0.094;2022-07-29T15:43:27;32.90;23.50
26254;DHT22;53339;51.378;0.094;2022-07-29T15:45:55;32.60;23.80
26254;DHT22;53339;51.378;0.094;2022-07-29T15:48:41;32.10;24.00
26254;DHT22;53339;51.378;0.094;2022-07-29T15:51:09;32.10;24.40
26254;DHT22;53339;51.378;0.094;2022-07-29T15:53:36;32.10;24.30
26254;DHT22;53339;51.378;0.094;2022-07-29T15:56:04;31.80;24.70
26254;DHT22;53339;51.378;0.094;2022-07-29T15:58:32;31.40;25.10
26254;DHT22;53339;51.378;0.094;2022-07-29T16:00:59;30.80;25.50
26254;DHT22;53339;51.378;0.094;2022-07-29T16:03:27;30.30;26.30
26254;DHT22;53339;51.378;0.094;2022-07-29T16:05:54;29.80;26.60
26254;DHT22;53339;51.378;0.094;2022-07-29T16:08:22;29.30;27.50
26254;DHT22;53339;51.378;0.094;2022-07-29T16:10:49;28.90;27.80
26254;DHT22;53339;51.378;0.094;2022-07-29T16:13:17;28.60;28.30
26254;DHT22;53339;51.378;0.094;2022-07-29T16:15:45;28.30;28.80
26254;DHT22;53339;51.378;0.094;2022-07-29T16:18:12;28.00;28.80
26254;DHT22;53339;51.378;0.094;2022-07-29T16:20:41;27.80;28.90
26254;DHT22;53339;51.378;0.094;2022-07-29T16:23:08;27.70;29.40
26254;DHT22;53339;51.378;0.094;2022-07-29T16:25:38;27.50;29.90
26254;DHT22;53339;51.378;0.094;2022-07-29T16:28:25;27.40;30.00
26254;DHT22;53339;51.378;0.094;2022-07-29T16:30:53;27.20;30.50
26254;DHT22;53339;51.378;0.094;2022-07-29T16:33:21;27.10;30.60
26254;DHT22;53339;51.378;0.094;2022-07-29T16:35:49;27.10;30.50
26254;DHT22;53339;51.378;0.094;2022-07-29T16:38:16;27.10;30.80
26254;DHT22;53339;51.378;0.094;2022-07-29T16:40:44;27.20;30.40
26254;DHT22;53339;51.378;0.094;2022-07-29T16:43:11;27.30;30.40
26254;DHT22;53339;51.378;0.094;2022-07-29T16:45:39;27.50;30.30
26254;DHT22;53339;51.378;0.094;2022-07-29T16:48:08;27.70;30.10
26254;DHT22;53339;51.378;0.094;2022-07-29T16:50:36;27.90;30.10
26254;DHT22;53339;51.378;0.094;2022-07-29T16:53:04;28.10;30.00
26254;DHT22;53339;51.378;0.094;2022-07-29T16:55:32;28.20;29.90
26254;DHT22;53339;51.378;0.094;2022-07-29T16:57:59;28.30;29.60